Aérodrome :
LOGIN :

S'inscrire | Disclaimer

   EN    FR    IT 

 










Légende :    VFR   VFR Marginal   IFR   IFR Intensif   IFR Très Intensif
Visi : 
Plafond : 
>= 8 km
>= 3000ft
5 à 8 km
1000 à 3000 ft
1500m à 5 km
500 à 1000 ft
800 à 1500m
200 à 500 ft
< 800m
< 200 ft
Symboles :   Orages  Brouillard  Fortes neiges  Fortes précipitations  Vent > 20 kt
SIGMETs :   Divers  Orages  Givrage  Turbulence  Onde Orograph.  Cendres Volcan.






- Altitude de l'aérodrome : 755 ft
- Code IATA : KSC


LZKZ - Kosice

DERNIER METAR :
  • 191630Z 16002KT 2500 BR SCT007 OVC030 M01/M02 Q1031 NOSIG

METARs EXPIRÉS :
  • 191600Z VRB02KT 2500 BR SCT010 OVC025 M02/M02 Q1031 NOSIG
  • 191530Z 19002KT 1500 BR OVC006 M02/M02 Q1031 NOSIG
  • 191500Z 19002KT 1200 R01/P2000N BR OVC003 M02/M02 Q1030 NOSIG
  • 191430Z 19002KT 0900 R01/P2000N FZFG OVC003 M02/M02 Q1030 NOSIG
  • 191400Z 15002KT 0800 R01/1700N FZFG OVC002 M02/M02 Q1029 NOSIG

TAF TAF LZKZ
Valide du 19 à 12h jusqu'au 20 à 12h UTC


191100Z 1912/2012 VRB02KT 0500 FZFG OVC002
PROB40
TEMPO 1912/1915 2500 BR BKN005
BECMG 1916/1918 01010KT 9999 BKN020
PROB30 1918/2008 5000 BR BKN010



MET'MAP, la Météo Aéronautique d'un coup d'oeil ! - Copyright ORBIFLY Décembre 2007 - Disclaimer

ORBIFLY MET'MAP TEAM :

Programmation & Développement : Alexandra Zaïnal
Sur une idée originale de : Baudouin d'Aumeries
Assistance à la programmation : Marc-Olivier Méhu
Soutien technique & logistique : Manuel Goepfert

Contact : metmap@orbifly.com




SOURCES & CREDITS :

   NOAA